Time;durP1;ratioP1;P1;durP2;ratioP2;P2;SDS_P1;SDS_P2;PMS_P1;PMS_P2;Temp;Humidity;BMP_temperature;BMP_pressure;BME280_temperature;BME280_humidity;BME280_pressure;Samples;Min_cycle;Max_cycle;Signal;HPM_P1;HPM_P2
2023/06/26 00:01:17;;;;;;;6.82;5.63;;;;;;;25.62;50.44;101198.31;5030244;28;20470;-68
2023/06/26 00:03:42;;;;;;;7.47;5.13;;;;;;;25.64;50.63;101209.66;5031092;28;20032;-68
2023/06/26 00:06:07;;;;;;;6.90;5.20;;;;;;;25.62;50.54;101201.81;5029852;28;20513;-67
2023/06/26 00:08:33;;;;;;;6.03;4.63;;;;;;;25.62;50.75;101199.13;5030539;28;20258;-68
2023/06/26 00:10:58;;;;;;;7.18;5.13;;;;;;;25.61;50.46;101194.81;5030656;28;20029;-67
2023/06/26 00:13:24;;;;;;;8.07;5.27;;;;;;;25.62;50.75;101195.66;5030838;28;20040;-67
2023/06/26 00:15:50;;;;;;;7.85;5.03;;;;;;;25.63;50.44;101194.66;5030776;28;20286;-68
2023/06/26 00:18:15;;;;;;;8.02;5.60;;;;;;;25.62;50.38;101188.47;5030407;28;20101;-67
2023/06/26 00:20:41;;;;;;;6.47;5.20;;;;;;;25.62;50.84;101191.13;5030096;28;20389;-69
2023/06/26 00:23:07;;;;;;;7.07;5.38;;;;;;;25.61;50.63;101189.47;5030335;28;20030;-67
2023/06/26 00:25:33;;;;;;;6.50;5.10;;;;;;;25.60;50.74;101186.97;5030147;28;20045;-66
2023/06/26 00:27:59;;;;;;;6.40;5.05;;;;;;;25.62;50.44;101195.66;5029507;28;20371;-67
2023/06/26 00:30:24;;;;;;;8.15;5.00;;;;;;;25.60;50.40;101189.66;5030471;28;20090;-67
2023/06/26 00:32:50;;;;;;;7.38;5.30;;;;;;;25.61;50.77;101197.50;5031023;28;20040;-66
2023/06/26 00:35:15;;;;;;;8.02;5.43;;;;;;;25.60;50.52;101193.16;5030132;28;20057;-67
2023/06/26 00:37:41;;;;;;;6.88;5.53;;;;;;;25.60;50.53;101190.47;5030791;28;20075;-67
2023/06/26 00:40:07;;;;;;;6.43;5.33;;;;;;;25.60;50.40;101190.47;5030137;28;20068;-67
2023/06/26 00:42:32;;;;;;;6.47;5.18;;;;;;;25.59;50.60;101183.47;5030214;28;20258;-68
2023/06/26 00:44:57;;;;;;;7.30;5.18;;;;;;;25.59;50.62;101186.13;5030688;28;20033;-68
2023/06/26 00:47:24;;;;;;;7.68;5.10;;;;;;;25.59;50.63;101196.81;5030587;28;20440;-68
2023/06/26 00:49:49;;;;;;;6.78;4.97;;;;;;;25.57;50.28;101196.13;5030672;28;20029;-67
2023/06/26 00:52:16;;;;;;;6.90;4.88;;;;;;;25.58;50.25;101195.16;5030261;28;20029;-66
2023/06/26 00:54:42;;;;;;;6.75;5.30;;;;;;;25.58;50.47;101195.16;5030409;28;20124;-67
2023/06/26 00:57:08;;;;;;;7.18;5.35;;;;;;;25.58;50.61;101196.97;5030654;28;20112;-68
2023/06/26 00:59:34;;;;;;;6.43;5.50;;;;;;;25.58;50.50;101203.16;5032093;28;21277;-67
2023/06/26 01:01:59;;;;;;;6.00;4.85;;;;;;;25.58;50.59;101204.97;5034256;28;20200;-68
2023/06/26 01:04:27;;;;;;;8.05;5.35;;;;;;;25.57;50.26;101208.66;5032965;28;20562;-68
2023/06/26 01:06:53;;;;;;;7.63;5.07;;;;;;;25.57;50.08;101208.66;5033641;28;20091;-68
2023/06/26 01:09:19;;;;;;;6.60;5.25;;;;;;;25.56;50.28;101198.97;5033407;28;20064;-68
2023/06/26 01:11:46;;;;;;;7.97;5.32;;;;;;;25.57;50.50;101214.81;5033682;28;20091;-68
2023/06/26 01:14:11;;;;;;;6.60;5.45;;;;;;;25.57;50.25;101212.16;5034346;28;20064;-68
2023/06/26 01:16:39;;;;;;;7.55;5.47;;;;;;;25.56;50.30;101217.66;5033188;28;20072;-69
2023/06/26 01:19:10;;;;;;;6.53;5.03;;;;;;;25.53;49.98;101208.13;5033583;28;20069;-68
2023/06/26 01:21:42;;;;;;;7.10;5.47;;;;;;;25.52;49.88;101209.16;5033595;28;20030;-68
2023/06/26 01:24:20;;;;;;;7.70;5.63;;;;;;;25.53;50.31;101214.31;5033467;28;20037;-69
2023/06/26 01:26:48;;;;;;;6.78;5.25;;;;;;;25.56;49.83;101226.47;5033071;28;20472;-69
2023/06/26 01:29:15;;;;;;;6.70;5.13;;;;;;;25.54;50.08;101223.16;5033429;28;20428;-68
2023/06/26 01:31:41;;;;;;;6.18;5.03;;;;;;;25.55;49.92;101223.97;5033295;28;20030;-68
2023/06/26 01:34:07;;;;;;;6.30;5.10;;;;;;;25.55;49.92;101232.84;5033647;28;20544;-67
2023/06/26 01:36:32;;;;;;;6.53;5.03;;;;;;;25.55;49.80;101221.31;5033291;28;20123;-68
2023/06/26 01:38:57;;;;;;;6.22;5.20;;;;;;;25.54;50.15;101223.16;5033141;28;20029;-67
2023/06/26 01:41:24;;;;;;;7.53;4.95;;;;;;;25.54;49.78;101228.50;5033242;28;20519;-66
2023/06/26 01:44:03;;;;;;;7.18;5.03;;;;;;;25.51;50.18;101228.81;5033236;28;20055;-67
2023/06/26 01:46:58;;;;;;;6.68;5.03;;;;;;;25.53;49.92;101230.34;5032725;28;20120;-69
2023/06/26 01:49:59;;;;;;;6.25;4.57;;;;;;;25.53;49.55;101229.47;5033142;28;20075;-68
2023/06/26 01:52:28;;;;;;;10.85;4.57;;;;;;;25.53;49.80;101243.69;5033066;28;20041;-69
2023/06/26 01:55:35;;;;;;;6.32;4.53;;;;;;;25.52;49.74;101252.66;5032475;28;20026;-67
2023/06/26 01:58:01;;;;;;;7.85;5.07;;;;;;;25.53;49.89;101257.03;5032410;28;20134;-69
2023/06/26 02:00:28;;;;;;;6.20;4.88;;;;;;;25.52;49.84;101258.00;5032725;28;20474;-66
2023/06/26 02:02:54;;;;;;;5.40;4.45;;;;;;;25.50;49.66;101251.16;5032589;28;20029;-70
2023/06/26 02:05:19;;;;;;;7.43;4.55;;;;;;;25.50;49.51;101261.81;5032320;28;20041;-67
2023/06/26 02:07:44;;;;;;;7.05;4.72;;;;;;;25.50;49.31;101262.69;5032151;28;20037;-67
2023/06/26 02:10:10;;;;;;;7.80;4.57;;;;;;;25.50;49.50;101259.16;5031685;28;20040;-65
2023/06/26 02:12:36;;;;;;;7.38;4.45;;;;;;;25.50;49.76;101257.34;5032325;28;20034;-69
2023/06/26 02:15:02;;;;;;;7.40;4.60;;;;;;;25.50;49.46;101257.34;5032426;28;20026;-68
2023/06/26 02:17:28;;;;;;;6.68;4.53;;;;;;;25.50;49.50;101256.50;5032456;28;20089;-67
2023/06/26 02:19:53;;;;;;;6.28;4.40;;;;;;;25.50;49.42;101257.34;5032220;28;20031;-67
2023/06/26 02:22:18;;;;;;;6.10;4.43;;;;;;;25.47;49.61;101249.66;5039693;28;20591;-66
2023/06/26 02:24:43;;;;;;;6.07;4.60;;;;;;;25.49;49.29;101263.66;5030637;28;20330;-67
2023/06/26 02:27:09;;;;;;;6.20;4.50;;;;;;;25.49;49.32;101257.50;5031935;28;20043;-68
2023/06/26 02:29:34;;;;;;;5.85;4.45;;;;;;;25.48;49.56;101255.81;5032306;28;20052;-67
2023/06/26 02:32:00;;;;;;;5.53;3.92;;;;;;;25.48;49.33;101261.16;5032268;28;20034;-67
2023/06/26 02:34:25;;;;;;;6.18;4.10;;;;;;;25.48;49.42;101263.81;5031931;28;20033;-68
2023/06/26 02:36:50;;;;;;;5.53;4.10;;;;;;;25.46;49.40;101258.66;5032458;28;20033;-69
2023/06/26 02:39:16;;;;;;;5.88;4.22;;;;;;;25.49;49.35;101265.50;5031264;28;20033;-69
2023/06/26 02:41:41;;;;;;;6.00;4.20;;;;;;;25.49;48.87;101273.50;5032297;28;20040;-69
2023/06/26 02:44:06;;;;;;;5.50;4.15;;;;;;;25.47;49.36;101264.84;5031928;28;20033;-68
2023/06/26 02:46:33;;;;;;;5.78;4.07;;;;;;;25.45;48.95;101265.00;5032188;28;20059;-68
2023/06/26 02:48:58;;;;;;;6.38;3.83;;;;;;;25.47;49.00;101272.84;5032003;28;20163;-67
2023/06/26 02:51:23;;;;;;;6.07;4.03;;;;;;;25.46;49.17;101277.34;5031756;28;20143;-68
2023/06/26 02:53:49;;;;;;;7.83;4.10;;;;;;;25.46;48.77;101287.19;5031833;28;20037;-68
2023/06/26 02:56:14;;;;;;;6.00;3.90;;;;;;;25.47;49.08;101288.84;5031906;28;20389;-67
2023/06/26 02:58:39;;;;;;;5.77;3.83;;;;;;;25.47;48.55;101291.53;5031598;28;20032;-66
2023/06/26 03:01:05;;;;;;;5.28;3.65;;;;;;;25.44;48.81;101290.00;5031429;28;20810;-67
2023/06/26 03:03:30;;;;;;;6.30;3.67;;;;;;;25.44;48.79;101287.34;5031868;28;20052;-65
2023/06/26 03:05:55;;;;;;;5.97;4.10;;;;;;;25.46;48.75;101300.53;5031750;28;20448;-67
2023/06/26 03:08:20;;;;;;;6.57;3.70;;;;;;;25.45;48.76;101305.03;5031052;28;20269;-66
2023/06/26 03:10:46;;;;;;;7.82;3.92;;;;;;;25.43;48.37;101295.50;5032047;28;20033;-68
2023/06/26 03:13:11;;;;;;;5.85;3.70;;;;;;;25.44;48.63;101291.84;5031648;28;20051;-66
2023/06/26 03:15:37;;;;;;;5.43;3.60;;;;;;;25.44;48.61;101298.00;5031246;28;20036;-67
2023/06/26 03:18:02;;;;;;;5.90;3.78;;;;;;;25.43;48.18;101300.84;5031424;28;20285;-66
2023/06/26 03:20:27;;;;;;;6.45;3.67;;;;;;;25.44;48.27;101299.84;5030617;28;20033;-67
2023/06/26 03:22:52;;;;;;;6.00;3.45;;;;;;;25.43;48.34;101295.50;5031283;28;20427;-66
2023/06/26 03:25:19;;;;;;;5.97;3.47;;;;;;;25.42;48.60;101297.34;5030947;28;20037;-68
2023/06/26 03:27:44;;;;;;;5.82;3.78;;;;;;;25.43;48.39;101298.19;5029615;28;20270;-67
2023/06/26 03:30:10;;;;;;;6.40;3.53;;;;;;;25.42;48.21;101302.69;5030995;28;20083;-67
2023/06/26 03:32:37;;;;;;;5.78;3.33;;;;;;;25.41;48.53;101300.19;5030582;28;20098;-68
2023/06/26 03:35:03;;;;;;;6.50;3.50;;;;;;;25.40;48.54;101296.66;5030721;28;20029;-68
2023/06/26 03:37:28;;;;;;;6.90;3.13;;;;;;;25.40;48.45;101293.16;5031221;28;20029;-68
2023/06/26 03:39:54;;;;;;;6.65;3.53;;;;;;;25.41;48.26;101297.50;5031006;28;20043;-68
2023/06/26 03:42:19;;;;;;;5.18;3.15;;;;;;;25.42;48.54;101296.50;5030639;28;20039;-68
2023/06/26 03:44:44;;;;;;;4.72;3.22;;;;;;;25.42;48.45;101301.81;5031412;28;20220;-67
2023/06/26 03:47:09;;;;;;;5.35;3.28;;;;;;;25.37;48.71;101291.63;5030745;28;20512;-67
2023/06/26 03:49:35;;;;;;;5.63;3.15;;;;;;;25.41;48.46;101298.34;5031374;28;20040;-67
2023/06/26 03:52:00;;;;;;;5.03;3.27;;;;;;;25.41;48.57;101302.84;5030523;28;20044;-67
2023/06/26 03:54:26;;;;;;;6.57;3.40;;;;;;;25.39;48.35;101305.69;5030908;28;20258;-66
2023/06/26 03:56:51;;;;;;;5.63;3.20;;;;;;;25.40;48.37;101318.00;5030851;28;20033;-68
2023/06/26 03:59:16;;;;;;;5.10;3.15;;;;;;;25.41;48.48;101316.19;5030989;28;20469;-68
2023/06/26 04:01:41;;;;;;;6.78;3.55;;;;;;;25.40;48.58;101312.66;5030485;28;20082;-66
2023/06/26 04:04:07;;;;;;;6.82;3.22;;;;;;;25.39;48.55;101315.50;5030925;28;20039;-66
2023/06/26 04:06:33;;;;;;;6.00;3.37;;;;;;;25.38;48.13;101327.19;5031243;28;20037;-68
2023/06/26 04:08:58;;;;;;;5.82;3.03;;;;;;;25.39;48.41;101326.16;5030475;28;20667;-68
2023/06/26 04:11:24;;;;;;;6.25;3.15;;;;;;;25.38;48.59;101328.00;5031088;28;20033;-68
2023/06/26 04:13:50;;;;;;;6.88;3.38;;;;;;;25.38;48.75;101346.69;5031211;28;20133;-68
2023/06/26 04:16:15;;;;;;;5.75;3.08;;;;;;;25.38;48.41;101346.69;5030559;28;20458;-68
2023/06/26 04:18:41;;;;;;;5.78;3.22;;;;;;;25.38;48.28;101349.34;5030574;28;20061;-68
2023/06/26 04:21:08;;;;;;;6.88;3.47;;;;;;;25.37;48.31;101352.19;5030344;28;20040;-68
2023/06/26 04:23:34;;;;;;;5.72;3.33;;;;;;;25.38;48.39;101351.19;5030675;28;20397;-68
2023/06/26 04:26:00;;;;;;;6.32;3.10;;;;;;;25.38;48.68;101353.84;5030881;28;20033;-68
2023/06/26 04:28:25;;;;;;;6.93;3.05;;;;;;;25.35;48.47;101347.00;5029199;28;20040;-67
2023/06/26 04:30:50;;;;;;;6.45;3.55;;;;;;;25.37;48.43;101355.66;5030339;28;20111;-67
2023/06/26 04:33:16;;;;;;;7.85;3.20;;;;;;;25.36;48.40;101356.69;5038362;28;20082;-68
2023/06/26 04:35:44;;;;;;;5.93;3.20;;;;;;;25.38;48.64;101357.34;5034696;28;20060;-68
2023/06/26 04:38:10;;;;;;;5.85;3.13;;;;;;;25.37;48.85;101358.34;5034265;28;20029;-67
2023/06/26 04:40:35;;;;;;;6.53;3.35;;;;;;;25.37;48.87;101360.19;5034273;28;20037;-70
2023/06/26 04:43:00;;;;;;;5.60;3.30;;;;;;;25.37;48.79;101357.50;5034408;28;20033;-66
2023/06/26 04:45:26;;;;;;;6.35;3.42;;;;;;;25.37;48.86;101369.00;5034050;28;20048;-67
2023/06/26 04:47:51;;;;;;;8.63;3.40;;;;;;;25.38;48.85;101372.53;5034250;28;20037;-66
2023/06/26 04:50:18;;;;;;;6.60;3.13;;;;;;;25.37;48.56;101377.00;5033924;28;20055;-67
2023/06/26 04:52:43;;;;;;;6.10;3.25;;;;;;;25.35;48.62;101379.00;5034381;28;20271;-67
2023/06/26 04:55:09;;;;;;;5.80;2.90;;;;;;;25.37;48.73;101377.00;5033182;28;20045;-65
2023/06/26 04:57:34;;;;;;;6.13;3.03;;;;;;;25.37;48.92;101381.53;5034301;28;20029;-67
2023/06/26 04:59:59;;;;;;;5.37;3.20;;;;;;;25.37;48.90;101379.69;5034716;28;20033;-66
2023/06/26 05:02:26;;;;;;;7.43;3.20;;;;;;;25.35;48.78;101374.50;5034177;28;20333;-68
2023/06/26 05:04:51;;;;;;;7.70;3.10;;;;;;;25.37;48.81;101385.00;5034059;28;20033;-68
2023/06/26 05:07:17;;;;;;;6.20;3.00;;;;;;;25.35;48.65;101387.84;5033982;28;20084;-68
2023/06/26 05:09:42;;;;;;;6.37;3.10;;;;;;;25.37;48.61;101393.03;5033491;28;20082;-68
2023/06/26 05:12:07;;;;;;;8.70;3.30;;;;;;;25.37;49.07;101394.84;5024027;28;20631;-68
2023/06/26 05:14:33;;;;;;;5.85;2.63;;;;;;;25.37;49.08;101390.34;5033893;28;20481;-68
2023/06/26 05:16:58;;;;;;;8.02;2.90;;;;;;;25.37;49.07;101402.88;5033655;28;20025;-68
2023/06/26 05:19:23;;;;;;;8.00;3.20;;;;;;;25.35;48.93;101393.19;5033729;28;20075;-67
2023/06/26 05:21:50;;;;;;;6.37;2.93;;;;;;;25.35;48.75;101401.19;5033288;28;20052;-69
2023/06/26 05:24:16;;;;;;;6.60;2.90;;;;;;;25.35;48.86;101400.34;5033607;28;20298;-66
2023/06/26 05:26:42;;;;;;;6.68;3.22;;;;;;;25.35;49.21;101401.19;5033582;28;20041;-68
2023/06/26 05:29:08;;;;;;;6.40;3.05;;;;;;;25.35;48.78;101409.19;5033662;28;20059;-68
2023/06/26 05:31:39;;;;;;;8.25;3.42;;;;;;;25.34;49.01;101412.00;5033973;28;20098;-69
2023/06/26 05:34:06;;;;;;;6.90;2.97;;;;;;;25.37;48.99;101405.53;5033441;28;20029;-67
2023/06/26 05:36:33;;;;;;;7.05;2.83;;;;;;;25.34;49.11;101410.19;5032977;28;20025;-66
2023/06/26 05:38:59;;;;;;;6.93;3.10;;;;;;;25.35;48.74;101419.03;5032635;28;20509;-68
2023/06/26 05:41:24;;;;;;;6.97;2.90;;;;;;;25.37;48.79;101413.53;5033219;28;20038;-66
2023/06/26 05:43:50;;;;;;;8.30;2.95;;;;;;;25.35;48.88;101419.84;5032947;28;20029;-68
2023/06/26 05:46:15;;;;;;;7.00;3.00;;;;;;;25.35;48.62;101425.19;5032322;28;20056;-68
2023/06/26 05:48:41;;;;;;;7.70;3.33;;;;;;;25.35;49.02;101422.53;5032965;28;20336;-69
2023/06/26 05:51:07;;;;;;;7.22;3.17;;;;;;;25.34;48.89;101428.00;5033363;28;20038;-68
2023/06/26 05:53:33;;;;;;;5.93;2.72;;;;;;;25.34;49.06;101436.88;5033162;28;20041;-66
2023/06/26 05:55:59;;;;;;;7.90;2.83;;;;;;;25.33;48.99;101431.69;5033100;28;20035;-66
2023/06/26 05:58:27;;;;;;;9.75;3.78;;;;;;;25.26;48.45;101431.47;5032847;28;20048;-64
2023/06/26 06:00:52;;;;;;;8.23;2.83;;;;;;;25.16;48.60;101439.56;5033081;28;20430;-65
2023/06/26 06:03:18;;;;;;;12.35;3.13;;;;;;;25.09;49.00;101448.38;5032551;28;20462;-67
2023/06/26 06:05:43;;;;;;;11.93;3.40;;;;;;;25.00;49.21;101450.13;5032504;28;20043;-66
2023/06/26 06:08:09;;;;;;;10.15;3.17;;;;;;;24.95;48.75;101457.75;5032518;28;20029;-65
2023/06/26 06:10:34;;;;;;;9.05;2.92;;;;;;;24.88;49.02;101454.88;5032751;28;20067;-66
2023/06/26 06:13:00;;;;;;;11.27;3.35;;;;;;;24.79;49.22;101455.78;5031760;28;20067;-65
2023/06/26 06:15:25;;;;;;;8.95;2.75;;;;;;;24.65;49.40;101454.50;5032109;28;20029;-66
2023/06/26 06:17:50;;;;;;;12.15;2.70;;;;;;;24.55;49.59;101462.56;5032879;28;20033;-66
2023/06/26 06:20:19;;;;;;;10.32;2.97;;;;;;;24.41;50.40;101466.56;5032656;28;20492;-65
2023/06/26 06:22:44;;;;;;;9.57;2.78;;;;;;;24.27;50.40;101473.28;5032278;28;20124;-67
2023/06/26 06:25:10;;;;;;;11.82;2.95;;;;;;;24.12;50.60;101479.28;5032509;28;20115;-66
2023/06/26 06:27:35;;;;;;;8.90;2.43;;;;;;;23.98;50.55;101475.28;5032369;28;20044;-66
2023/06/26 06:30:00;;;;;;;10.77;2.92;;;;;;;23.88;50.93;101470.00;5032361;28;20266;-66
2023/06/26 06:32:26;;;;;;;9.38;2.72;;;;;;;23.82;51.43;101473.22;5031952;28;20116;-66
2023/06/26 06:34:51;;;;;;;8.30;2.60;;;;;;;23.77;51.13;101467.50;5032613;28;20032;-66
2023/06/26 06:37:16;;;;;;;6.75;2.50;;;;;;;23.74;50.79;101465.97;5031863;28;20107;-65
2023/06/26 06:39:41;;;;;;;6.40;2.15;;;;;;;23.73;50.83;101486.44;5032023;28;20171;-65
2023/06/26 06:42:07;;;;;;;7.10;2.50;;;;;;;23.70;50.60;101477.88;5032621;28;20044;-64
2023/06/26 06:44:33;;;;;;;5.97;2.50;;;;;;;23.71;51.07;101487.53;5032196;28;20610;-63
2023/06/26 06:46:58;;;;;;;8.30;2.15;;;;;;;23.70;51.21;101496.50;5032074;28;20070;-66
2023/06/26 06:49:24;;;;;;;9.68;2.33;;;;;;;23.77;51.17;101500.28;5031910;28;20037;-64
2023/06/26 06:51:49;;;;;;;6.15;2.17;;;;;;;23.87;50.86;101500.25;5032056;28;20147;-65
2023/06/26 06:54:16;;;;;;;7.30;2.33;;;;;;;23.96;50.62;101503.84;5031539;28;20078;-63
2023/06/26 06:56:41;;;;;;;8.40;2.17;;;;;;;24.05;50.19;101500.31;5031556;28;20037;-65
2023/06/26 06:59:07;;;;;;;7.63;2.20;;;;;;;24.08;50.22;101502.66;5031569;28;20033;-65
2023/06/26 07:01:32;;;;;;;6.78;2.10;;;;;;;24.04;49.93;101509.28;5031903;28;20040;-65
2023/06/26 07:03:57;;;;;;;7.63;2.50;;;;;;;24.03;50.57;101527.06;5031088;28;20087;-66
2023/06/26 07:06:23;;;;;;;7.33;2.37;;;;;;;23.98;50.44;101532.00;5031293;28;20118;-66
2023/06/26 07:08:48;;;;;;;8.23;2.47;;;;;;;23.92;50.79;101527.25;5031486;28;20273;-66
2023/06/26 07:11:13;;;;;;;7.93;2.00;;;;;;;23.87;50.85;101534.84;5032065;28;20152;-64
2023/06/26 07:13:39;;;;;;;9.00;2.47;;;;;;;23.85;51.48;101544.81;5030543;28;20267;-64
2023/06/26 07:16:04;;;;;;;6.72;2.30;;;;;;;23.79;51.08;101530.22;5031704;28;20037;-65
2023/06/26 07:18:29;;;;;;;7.22;2.40;;;;;;;23.74;50.82;101540.47;5031021;28;20041;-65
2023/06/26 07:20:54;;;;;;;5.90;2.00;;;;;;;23.73;51.23;101542.31;5031527;28;20067;-65
2023/06/26 07:23:20;;;;;;;7.00;2.00;;;;;;;23.67;51.51;101548.22;5026689;28;20047;-62
2023/06/26 07:25:45;;;;;;;6.23;2.10;;;;;;;23.66;51.97;101556.34;5030776;28;20087;-64
2023/06/26 07:28:11;;;;;;;9.35;2.25;;;;;;;23.65;52.16;101552.81;5031607;28;20373;-65
2023/06/26 07:30:37;;;;;;;6.65;2.17;;;;;;;23.62;51.98;101560.25;5030909;28;20037;-67
2023/06/26 07:33:02;;;;;;;6.93;1.85;;;;;;;23.60;51.22;101556.91;5031410;28;20036;-65
2023/06/26 07:35:27;;;;;;;6.22;2.10;;;;;;;23.60;51.50;101555.06;5030935;28;20025;-66
2023/06/26 07:37:53;;;;;;;7.78;2.00;;;;;;;23.58;51.26;101569.53;5030721;28;20385;-68
2023/06/26 07:40:18;;;;;;;5.57;1.98;;;;;;;23.60;51.62;101565.72;5030479;28;20140;-66
2023/06/26 07:42:43;;;;;;;5.85;2.03;;;;;;;23.64;51.81;101577.75;5030529;28;20033;-66
2023/06/26 07:45:11;;;;;;;7.07;1.90;;;;;;;23.70;51.34;101579.00;5030520;28;20033;-64
2023/06/26 07:47:38;;;;;;;6.00;1.80;;;;;;;23.76;51.40;101575.75;5030267;28;20044;-64
2023/06/26 07:50:04;;;;;;;5.55;1.98;;;;;;;23.88;50.66;101579.13;5029373;28;20047;-64
2023/06/26 07:52:32;;;;;;;4.38;2.00;;;;;;;23.91;50.77;101573.53;5030141;28;20034;-64
2023/06/26 07:54:58;;;;;;;5.00;1.63;;;;;;;23.93;49.80;101576.88;5030086;28;20091;-66
2023/06/26 07:57:24;;;;;;;3.70;1.58;;;;;;;23.98;49.32;101597.72;5029584;28;20763;-66
2023/06/26 07:59:50;;;;;;;6.03;1.95;;;;;;;24.01;49.20;101592.94;5029537;28;20026;-63
2023/06/26 08:02:15;;;;;;;4.13;1.63;;;;;;;24.06;48.69;101589.84;5029541;28;20022;-66
2023/06/26 08:04:41;;;;;;;7.03;1.60;;;;;;;24.11;48.65;101597.41;5029858;28;20033;-67
2023/06/26 08:07:06;;;;;;;3.92;1.40;;;;;;;24.14;48.42;101602.44;5030500;28;20383;-65
2023/06/26 08:09:32;;;;;;;4.18;1.55;;;;;;;24.16;48.10;101598.63;5032658;28;20045;-65
2023/06/26 08:11:58;;;;;;;6.07;1.92;;;;;;;24.15;47.92;101599.63;5034495;28;20028;-66
2023/06/26 08:14:24;;;;;;;4.85;1.60;;;;;;;24.17;47.65;101608.31;5034535;28;20032;-66
2023/06/26 08:16:50;;;;;;;3.53;1.30;;;;;;;24.17;46.59;101618.94;5034831;28;20106;-67
2023/06/26 08:19:16;;;;;;;4.63;1.30;;;;;;;24.17;45.59;101607.47;5033150;28;20457;-64
2023/06/26 08:21:43;;;;;;;3.95;1.10;;;;;;;24.16;44.71;101609.28;5034706;28;20462;-64
2023/06/26 08:24:08;;;;;;;5.13;1.45;;;;;;;24.15;44.99;101609.41;5033855;28;20067;-65
2023/06/26 08:26:34;;;;;;;4.45;1.48;;;;;;;24.18;45.13;101611.78;5034239;28;20447;-64
2023/06/26 08:29:00;;;;;;;5.72;1.27;;;;;;;24.18;44.65;101612.66;5034038;28;20044;-64
2023/06/26 08:31:25;;;;;;;4.65;1.30;;;;;;;24.18;44.77;101615.31;5033961;28;20041;-65
2023/06/26 08:33:50;;;;;;;3.65;1.00;;;;;;;24.18;44.96;101619.78;5033575;28;20033;-64
2023/06/26 08:36:16;;;;;;;3.88;1.27;;;;;;;24.20;45.37;101618.66;5033323;28;20029;-63
2023/06/26 08:38:41;;;;;;;3.97;1.38;;;;;;;24.21;44.93;101607.03;5033424;28;20137;-63
2023/06/26 08:41:07;;;;;;;3.20;1.10;;;;;;;24.22;44.44;101607.88;5034394;28;20037;-69
2023/06/26 08:43:33;;;;;;;3.95;1.20;;;;;;;24.23;45.23;101614.88;5034222;28;20045;-67
2023/06/26 08:45:59;;;;;;;4.88;1.30;;;;;;;24.24;45.29;101614.72;5033169;28;20504;-66
2023/06/26 08:48:25;;;;;;;3.80;1.23;;;;;;;24.27;45.38;101627.75;5033313;28;20037;-67
2023/06/26 08:50:52;;;;;;;2.97;1.05;;;;;;;24.26;44.73;101628.72;5033533;28;20035;-67
2023/06/26 08:53:26;;;;;;;2.85;1.20;;;;;;;24.31;44.92;101625.63;5032978;28;20041;-65
2023/06/26 08:55:53;;;;;;;3.63;1.10;;;;;;;24.36;45.51;101627.84;5032774;28;20033;-64
2023/06/26 08:58:18;;;;;;;5.20;1.27;;;;;;;24.41;45.38;101634.41;5032688;28;20507;-66
2023/06/26 09:00:44;;;;;;;4.82;1.23;;;;;;;24.42;44.35;101635.25;5032581;28;20064;-68
2023/06/26 09:03:10;;;;;;;4.03;1.30;;;;;;;24.42;43.51;101641.41;5032696;28;20029;-63
2023/06/26 09:05:36;;;;;;;5.13;1.08;;;;;;;24.46;43.41;101639.28;5040445;28;20591;-67
2023/06/26 09:08:01;;;;;;;2.95;1.00;;;;;;;24.47;42.47;101638.31;5032103;28;20677;-65
2023/06/26 09:10:27;;;;;;;5.47;1.10;;;;;;;24.47;42.86;101643.66;5031657;28;20060;-65
2023/06/26 09:12:57;;;;;;;4.18;1.10;;;;;;;24.48;43.26;101644.47;5032216;28;20033;-64
2023/06/26 09:15:22;;;;;;;4.68;1.20;;;;;;;24.53;43.72;101637.72;5033982;28;20044;-64
2023/06/26 09:17:48;;;;;;;4.50;1.10;;;;;;;24.55;43.61;101649.06;5032903;28;20041;-64
2023/06/26 09:20:14;;;;;;;3.78;1.15;;;;;;;24.55;43.65;101654.41;5032555;28;20035;-64
2023/06/26 09:22:47;;;;;;;5.70;1.10;;;;;;;24.57;43.56;101657.78;5032342;28;20059;-65
2023/06/26 09:25:12;;;;;;;4.28;1.08;;;;;;;24.57;42.71;101647.13;5032962;28;20077;-63
2023/06/26 09:27:38;;;;;;;3.58;1.10;;;;;;;24.57;41.91;101652.44;5032556;28;20052;-64
2023/06/26 09:30:04;;;;;;;5.82;1.30;;;;;;;24.61;41.87;101651.19;5032641;28;20672;-65
2023/06/26 09:32:29;;;;;;;4.47;1.13;;;;;;;24.63;42.32;101651.84;5032735;28;20704;-63
2023/06/26 09:35:00;;;;;;;3.25;1.27;;;;;;;24.68;42.43;101662.06;5033140;28;20040;-63
2023/06/26 09:37:25;;;;;;;4.18;1.23;;;;;;;24.71;41.87;101667.13;5032568;28;20037;-64
2023/06/26 09:39:52;;;;;;;4.47;1.05;;;;;;;24.73;42.03;101669.63;5032783;28;20029;-65
2023/06/26 09:42:17;;;;;;;3.05;1.00;;;;;;;24.76;42.21;101674.66;5032765;28;20029;-65
2023/06/26 09:44:47;;;;;;;4.53;1.27;;;;;;;24.77;41.92;101673.69;5032705;28;20029;-65
2023/06/26 09:47:16;;;;;;;4.07;1.42;;;;;;;24.78;41.85;101680.69;5032332;28;20095;-66
2023/06/26 09:49:44;;;;;;;4.78;1.40;;;;;;;24.77;41.54;101684.34;5032219;28;20047;-64
2023/06/26 09:52:13;;;;;;;3.42;1.05;;;;;;;24.80;41.23;101692.88;5032578;28;20497;-66
2023/06/26 09:54:38;;;;;;;2.28;0.90;;;;;;;24.82;41.25;101692.72;5032500;28;20037;-66
2023/06/26 09:57:08;;;;;;;3.28;1.10;;;;;;;24.83;41.51;101685.56;5031662;28;20492;-68
2023/06/26 09:59:34;;;;;;;4.38;1.00;;;;;;;24.85;41.05;101686.25;5031767;28;20067;-66
2023/06/26 10:02:00;;;;;;;4.07;0.85;;;;;;;24.86;40.75;101680.75;5031937;28;20500;-64
2023/06/26 10:04:26;;;;;;;3.08;0.98;;;;;;;24.93;41.02;101679.19;5032148;28;20032;-65
2023/06/26 10:06:54;;;;;;;3.72;1.10;;;;;;;24.96;41.39;101694.06;5032088;28;20462;-65
2023/06/26 10:09:21;;;;;;;2.78;1.00;;;;;;;24.97;42.14;101688.56;5032068;28;20041;-65
2023/06/26 10:11:53;;;;;;;3.25;0.90;;;;;;;25.00;42.36;101703.44;5032675;28;20470;-64
2023/06/26 10:14:22;;;;;;;4.53;1.10;;;;;;;25.02;42.32;101700.59;5032315;28;20036;-64
2023/06/26 10:16:49;;;;;;;3.33;1.00;;;;;;;25.04;42.47;101698.63;5032130;28;20039;-64
2023/06/26 10:19:18;;;;;;;5.07;1.17;;;;;;;25.08;42.14;101700.00;5031736;28;20057;-66
2023/06/26 10:21:44;;;;;;;3.00;0.90;;;;;;;25.11;42.35;101695.22;5031032;28;20048;-64
2023/06/26 10:24:11;;;;;;;3.17;1.00;;;;;;;25.14;41.89;101702.09;5032586;28;20405;-67
2023/06/26 10:26:40;;;;;;;2.65;0.93;;;;;;;25.14;41.80;101702.91;5032085;28;20041;-63
2023/06/26 10:29:07;;;;;;;2.58;0.90;;;;;;;25.16;41.93;101711.59;5031923;28;20118;-64
2023/06/26 10:31:33;;;;;;;4.00;0.88;;;;;;;25.20;42.49;101700.63;5030484;28;20477;-64
2023/06/26 10:33:59;;;;;;;2.47;1.00;;;;;;;25.21;42.42;101702.31;5031827;28;20576;-65
2023/06/26 10:36:30;;;;;;;3.53;0.90;;;;;;;25.22;42.12;101715.50;5031115;28;20024;-64
2023/06/26 10:39:03;;;;;;;3.53;1.00;;;;;;;25.23;42.12;101711.84;5031262;28;20033;-67
2023/06/26 10:41:37;;;;;;;3.35;1.00;;;;;;;25.26;41.94;101721.34;5031660;28;20458;-65
2023/06/26 10:44:02;;;;;;;2.60;0.80;;;;;;;25.27;42.17;101718.53;5031399;28;20040;-64
2023/06/26 10:46:29;;;;;;;2.45;1.10;;;;;;;25.30;42.09;101725.44;5032629;28;20033;-68
2023/06/26 10:49:01;;;;;;;3.60;1.00;;;;;;;25.32;41.90;101734.13;5031355;28;20044;-67
2023/06/26 10:51:27;;;;;;;2.83;0.80;;;;;;;25.35;41.63;101734.66;5021752;28;20033;-67
2023/06/26 10:53:57;;;;;;;3.92;1.00;;;;;;;25.35;41.63;101729.31;5030837;28;20035;-65
2023/06/26 10:56:42;;;;;;;2.92;1.25;;;;;;;25.35;42.20;101726.66;5030266;28;20033;-67
2023/06/26 10:59:19;;;;;;;2.45;0.80;;;;;;;25.37;42.26;101717.66;5030775;28;20025;-66
2023/06/26 11:01:47;;;;;;;3.22;0.90;;;;;;;25.43;42.46;101722.41;5032149;28;20384;-66
2023/06/26 11:04:16;;;;;;;2.88;1.05;;;;;;;25.42;42.22;101732.25;5031398;28;20128;-67
2023/06/26 11:06:44;;;;;;;4.75;1.10;;;;;;;25.47;41.98;101743.31;5031232;28;20124;-66
2023/06/26 11:09:11;;;;;;;3.03;0.98;;;;;;;25.45;41.73;101747.09;5030281;28;20887;-66
2023/06/26 11:11:52;;;;;;;3.30;0.82;;;;;;;25.47;41.66;101745.13;5031483;28;20477;-66
2023/06/26 11:14:18;;;;;;;2.70;0.80;;;;;;;25.48;42.00;101746.78;5031514;28;20033;-67
2023/06/26 11:16:44;;;;;;;2.10;0.80;;;;;;;25.50;42.32;101745.66;5030610;28;20082;-67
2023/06/26 11:19:10;;;;;;;2.65;1.00;;;;;;;25.51;41.61;101746.50;5029749;28;20053;-67
2023/06/26 11:21:37;;;;;;;3.80;0.95;;;;;;;25.49;42.58;101754.66;5030972;28;20068;-66